Time;durP1;ratioP1;P1;durP2;ratioP2;P2;SDS_P1;SDS_P2;PMS_P1;PMS_P2;Temp;Humidity;BMP_temperature;BMP_pressure;BME280_temperature;BME280_humidity;BME280_pressure;Samples;Min_cycle;Max_cycle;Signal;HPM_P1;HPM_P2
2023/04/11 00:00:29;;;;;;;29.98;5.10;;;;;;;;;;5118104;27;20047;-37
2023/04/11 00:03:05;;;;;;;28.90;5.93;;;;;;;;;;5124618;27;20032;-37
2023/04/11 00:05:32;;;;;;;31.00;6.20;;;;;;;;;;5123936;27;20110;-35
2023/04/11 00:08:00;;;;;;;38.08;10.50;;;;;;;;;;5121945;27;20039;-37
2023/04/11 00:10:27;;;;;;;47.40;13.18;;;;;;;;;;5132952;27;20392;-35
2023/04/11 00:12:55;;;;;;;66.13;20.95;;;;;;;;;;5125170;27;20062;-35
2023/04/11 00:15:23;;;;;;;64.30;20.35;;;;;;;;;;5127414;27;20496;-37
2023/04/11 00:17:52;;;;;;;64.20;20.30;;;;;;;;;;5133018;27;20027;-37
2023/04/11 00:20:19;;;;;;;67.68;21.45;;;;;;;;;;5117104;27;20147;-36
2023/04/11 00:22:46;;;;;;;59.30;20.23;;;;;;;;;;5121523;27;20031;-37
2023/04/11 00:25:13;;;;;;;57.40;18.73;;;;;;;;;;5132864;27;20110;-37
2023/04/11 00:27:41;;;;;;;47.17;16.70;;;;;;;;;;5124048;27;20035;-37
2023/04/11 00:30:08;;;;;;;55.55;16.48;;;;;;;;;;5120822;27;20034;-36
2023/04/11 00:32:35;;;;;;;47.03;14.95;;;;;;;;;;5118569;27;20038;-36
2023/04/11 00:35:02;;;;;;;40.58;13.82;;;;;;;;;;5123257;27;20413;-35
2023/04/11 00:37:34;;;;;;;49.83;13.77;;;;;;;;;;5129174;27;20031;-37
2023/04/11 00:40:04;;;;;;;39.42;13.55;;;;;;;;;;5117983;27;20504;-36
2023/04/11 00:42:41;;;;;;;39.85;12.27;;;;;;;;;;5111873;28;20035;-35
2023/04/11 00:45:08;;;;;;;42.35;10.93;;;;;;;;;;5126318;27;20050;-35
2023/04/11 00:47:35;;;;;;;37.53;10.38;;;;;;;;;;5132733;27;20453;-37
2023/04/11 00:50:02;;;;;;;57.13;10.82;;;;;;;;;;5118665;27;20390;-37
2023/04/11 00:52:30;;;;;;;40.78;10.10;;;;;;;;;;5132397;27;20029;-36
2023/04/11 00:54:57;;;;;;;36.53;10.52;;;;;;;;;;5132426;27;20080;-36
2023/04/11 00:57:25;;;;;;;47.90;9.43;;;;;;;;;;5128767;27;20114;-37
2023/04/11 00:59:52;;;;;;;39.65;9.20;;;;;;;;;;5118679;27;20076;-36
2023/04/11 01:02:19;;;;;;;48.58;9.07;;;;;;;;;;5121742;27;20020;-37
2023/04/11 01:04:46;;;;;;;51.08;8.80;;;;;;;;;;5121876;27;20072;-36
2023/04/11 01:07:14;;;;;;;45.17;8.98;;;;;;;;;;5130298;27;20055;-36
2023/04/11 01:09:41;;;;;;;52.95;8.35;;;;;;;;;;5130444;27;20035;-35
2023/04/11 01:12:09;;;;;;;43.42;8.38;;;;;;;;;;5125944;28;20023;-35
2023/04/11 01:14:36;;;;;;;42.70;8.40;;;;;;;;;;5123040;28;20393;-35
2023/04/11 01:17:03;;;;;;;31.92;7.05;;;;;;;;;;5129135;28;20065;-36
2023/04/11 01:19:30;;;;;;;34.13;7.07;;;;;;;;;;5130476;28;20511;-36
2023/04/11 01:21:58;;;;;;;33.70;7.78;;;;;;;;;;5130370;28;20147;-35
2023/04/11 01:24:25;;;;;;;40.47;7.28;;;;;;;;;;5130525;28;20106;-35
2023/04/11 01:26:52;;;;;;;37.17;6.82;;;;;;;;;;5120457;28;20051;-36
2023/04/11 01:29:19;;;;;;;32.15;6.85;;;;;;;;;;5126049;28;20027;-35
2023/04/11 01:31:46;;;;;;;33.15;6.50;;;;;;;;;;5128075;28;20027;-36
2023/04/11 01:34:15;;;;;;;27.38;6.68;;;;;;;;;;5126903;28;20054;-35
2023/04/11 01:36:43;;;;;;;26.58;6.22;;;;;;;;;;5125806;28;20039;-36
2023/04/11 01:39:10;;;;;;;28.88;5.60;;;;;;;;;;5128560;28;20045;-36
2023/04/11 01:41:37;;;;;;;26.70;5.82;;;;;;;;;;5130232;28;20072;-36
2023/04/11 01:44:04;;;;;;;21.67;5.68;;;;;;;;;;5131107;28;20051;-36
2023/04/11 01:46:32;;;;;;;28.48;5.05;;;;;;;;;;5131375;28;20042;-35
2023/04/11 01:49:02;;;;;;;25.92;5.80;;;;;;;;;;5131504;28;20055;-35
2023/04/11 01:51:29;;;;;;;32.50;5.30;;;;;;;;;;5132429;27;20027;-35
2023/04/11 01:53:56;;;;;;;20.35;5.60;;;;;;;;;;5136095;27;20426;-35
2023/04/11 01:56:23;;;;;;;20.10;5.10;;;;;;;;;;5136355;27;20523;-36
2023/04/11 01:58:50;;;;;;;27.50;5.47;;;;;;;;;;5136129;27;20027;-35
2023/04/11 02:01:18;;;;;;;24.85;5.28;;;;;;;;;;5136122;27;20035;-35
2023/04/11 02:03:45;;;;;;;22.33;4.97;;;;;;;;;;5135727;27;20042;-35
2023/04/11 02:06:12;;;;;;;22.02;4.95;;;;;;;;;;5134785;27;20079;-36
2023/04/11 02:08:39;;;;;;;23.13;5.00;;;;;;;;;;5135989;27;20047;-35
2023/04/11 02:11:07;;;;;;;18.73;4.38;;;;;;;;;;5135851;27;20076;-36
2023/04/11 02:13:34;;;;;;;24.77;5.32;;;;;;;;;;5135968;27;20035;-35
2023/04/11 02:16:08;;;;;;;19.92;4.65;;;;;;;;;;5135982;27;20039;-36
2023/04/11 02:18:36;;;;;;;21.52;5.60;;;;;;;;;;5135758;27;20075;-35
2023/04/11 02:21:03;;;;;;;18.00;4.20;;;;;;;;;;5135673;27;20119;-36
2023/04/11 02:23:30;;;;;;;22.55;4.80;;;;;;;;;;5135690;27;20038;-35
2023/04/11 02:25:57;;;;;;;20.75;4.40;;;;;;;;;;5135675;27;20031;-36
2023/04/11 02:28:24;;;;;;;17.90;4.43;;;;;;;;;;5135465;27;20063;-35
2023/04/11 02:30:51;;;;;;;15.63;3.92;;;;;;;;;;5135591;27;20104;-36
2023/04/11 02:33:18;;;;;;;21.08;4.60;;;;;;;;;;5135540;27;20024;-36
2023/04/11 02:35:46;;;;;;;14.73;3.80;;;;;;;;;;5135550;27;20156;-36
2023/04/11 02:38:13;;;;;;;18.15;3.95;;;;;;;;;;5135477;27;20030;-36
2023/04/11 02:40:40;;;;;;;15.82;3.70;;;;;;;;;;5135480;27;20164;-36
2023/04/11 02:43:07;;;;;;;13.95;3.53;;;;;;;;;;5135310;27;20507;-35
2023/04/11 02:45:34;;;;;;;20.38;3.63;;;;;;;;;;5135273;27;20038;-36
2023/04/11 02:48:01;;;;;;;15.68;4.13;;;;;;;;;;5133711;27;20056;-35
2023/04/11 02:50:28;;;;;;;18.27;3.67;;;;;;;;;;5135253;27;20114;-36
2023/04/11 02:52:55;;;;;;;15.82;4.13;;;;;;;;;;5135282;27;20024;-36
2023/04/11 02:55:23;;;;;;;18.48;3.95;;;;;;;;;;5135187;27;20019;-36
2023/04/11 02:57:50;;;;;;;21.38;4.40;;;;;;;;;;5134899;27;20039;-35
2023/04/11 03:00:19;;;;;;;13.25;3.58;;;;;;;;;;5135128;27;20047;-36
2023/04/11 03:02:47;;;;;;;17.48;4.00;;;;;;;;;;5134726;27;20023;-36
2023/04/11 03:05:15;;;;;;;17.88;3.65;;;;;;;;;;5134872;27;20042;-36
2023/04/11 03:07:43;;;;;;;15.32;3.58;;;;;;;;;;5134887;27;20027;-35
2023/04/11 03:10:10;;;;;;;14.70;3.88;;;;;;;;;;5134718;27;20034;-35
2023/04/11 03:12:37;;;;;;;12.63;3.50;;;;;;;;;;5134779;27;20445;-35
2023/04/11 03:15:04;;;;;;;14.82;3.28;;;;;;;;;;5133417;27;20454;-36
2023/04/11 03:17:31;;;;;;;15.80;3.72;;;;;;;;;;5134666;27;20027;-36
2023/04/11 03:19:58;;;;;;;12.38;2.90;;;;;;;;;;5134703;27;20366;-36
2023/04/11 03:22:25;;;;;;;13.93;3.72;;;;;;;;;;5134262;27;20095;-36
2023/04/11 03:24:52;;;;;;;14.60;3.47;;;;;;;;;;5134613;27;20427;-36
2023/04/11 03:27:19;;;;;;;11.45;3.13;;;;;;;;;;5134597;27;20070;-36
2023/04/11 03:29:47;;;;;;;12.00;3.25;;;;;;;;;;5134402;27;20104;-36
2023/04/11 03:32:14;;;;;;;11.63;3.15;;;;;;;;;;5134461;27;20083;-36
2023/04/11 03:34:40;;;;;;;12.23;3.17;;;;;;;;;;5132889;27;20027;-35
2023/04/11 03:37:07;;;;;;;13.07;2.88;;;;;;;;;;5134381;27;20019;-37
2023/04/11 03:39:34;;;;;;;14.98;3.30;;;;;;;;;;5134286;27;20023;-36
2023/04/11 03:42:02;;;;;;;14.27;3.10;;;;;;;;;;5134298;27;20046;-36
2023/04/11 03:44:29;;;;;;;14.48;3.15;;;;;;;;;;5134170;27;20031;-36
2023/04/11 03:46:56;;;;;;;9.77;2.63;;;;;;;;;;5134017;27;20396;-36
2023/04/11 03:49:23;;;;;;;16.33;3.25;;;;;;;;;;5133999;27;20053;-36
2023/04/11 03:51:50;;;;;;;14.85;3.25;;;;;;;;;;5134100;27;20047;-37
2023/04/11 03:54:17;;;;;;;11.43;3.13;;;;;;;;;;5133996;27;20084;-35
2023/04/11 03:56:44;;;;;;;15.32;2.88;;;;;;;;;;5134017;27;20026;-36
2023/04/11 03:59:11;;;;;;;14.55;3.33;;;;;;;;;;5132386;27;20019;-36
2023/04/11 04:01:38;;;;;;;13.90;2.60;;;;;;;;;;5133829;27;20511;-36
2023/04/11 04:04:06;;;;;;;12.82;2.65;;;;;;;;;;5133609;27;20043;-36
2023/04/11 04:06:33;;;;;;;11.15;2.90;;;;;;;;;;5133396;27;20031;-36
2023/04/11 04:08:59;;;;;;;11.80;2.88;;;;;;;;;;5133659;27;20075;-36
2023/04/11 04:11:26;;;;;;;14.15;3.45;;;;;;;;;;5133532;27;20449;-36
2023/04/11 04:13:54;;;;;;;13.63;2.78;;;;;;;;;;5133422;27;20030;-36
2023/04/11 04:16:21;;;;;;;12.57;3.80;;;;;;;;;;5133097;27;20385;-36
2023/04/11 04:18:48;;;;;;;10.40;2.72;;;;;;;;;;5133278;27;20042;-37
2023/04/11 04:21:15;;;;;;;13.20;2.83;;;;;;;;;;5133266;27;20039;-36
2023/04/11 04:23:46;;;;;;;12.40;3.45;;;;;;;;;;5133466;27;20098;-36
2023/04/11 04:26:16;;;;;;;8.18;2.25;;;;;;;;;;5133323;27;20066;-36
2023/04/11 04:28:46;;;;;;;14.40;3.30;;;;;;;;;;5133308;27;20034;-36
2023/04/11 04:31:14;;;;;;;13.27;3.08;;;;;;;;;;5133331;27;20046;-36
2023/04/11 04:33:41;;;;;;;10.20;2.92;;;;;;;;;;5133032;27;20023;-36
2023/04/11 04:36:11;;;;;;;12.55;2.97;;;;;;;;;;5132932;27;20404;-36
2023/04/11 04:38:40;;;;;;;10.60;2.40;;;;;;;;;;5133037;27;20385;-36
2023/04/11 04:41:13;;;;;;;14.63;2.85;;;;;;;;;;5132897;27;20087;-36
2023/04/11 04:43:44;;;;;;;10.07;2.60;;;;;;;;;;5133021;27;20039;-36
2023/04/11 04:46:10;;;;;;;12.50;3.03;;;;;;;;;;5133059;27;20106;-36
2023/04/11 04:48:37;;;;;;;14.13;2.78;;;;;;;;;;5132986;27;20032;-36
2023/04/11 04:51:05;;;;;;;10.07;2.50;;;;;;;;;;5132845;27;20100;-35
2023/04/11 04:53:37;;;;;;;10.48;2.95;;;;;;;;;;5133004;27;20039;-36
2023/04/11 04:56:04;;;;;;;8.77;2.63;;;;;;;;;;5132899;27;20088;-35
2023/04/11 04:58:31;;;;;;;11.07;2.63;;;;;;;;;;5132854;27;20100;-36
2023/04/11 05:01:01;;;;;;;10.75;2.75;;;;;;;;;;5132873;27;20388;-36
2023/04/11 05:03:33;;;;;;;9.23;2.35;;;;;;;;;;5132798;27;20038;-36
2023/04/11 05:06:01;;;;;;;11.00;2.15;;;;;;;;;;5133046;27;20031;-36
2023/04/11 05:08:28;;;;;;;7.80;2.25;;;;;;;;;;5132530;27;20041;-36
2023/04/11 05:10:55;;;;;;;11.32;2.70;;;;;;;;;;5132595;27;20031;-36
2023/04/11 05:13:22;;;;;;;13.93;2.63;;;;;;;;;;5132698;28;20131;-35
2023/04/11 05:15:49;;;;;;;12.55;2.47;;;;;;;;;;5132706;28;20019;-35
2023/04/11 05:18:16;;;;;;;13.10;2.45;;;;;;;;;;5132634;27;20030;-35
2023/04/11 05:20:43;;;;;;;11.05;2.65;;;;;;;;;;5132446;27;20752;-35
2023/04/11 05:23:10;;;;;;;9.13;2.70;;;;;;;;;;5132652;28;20042;-35
2023/04/11 05:25:37;;;;;;;10.05;2.33;;;;;;;;;;5133185;27;20501;-35
2023/04/11 05:28:04;;;;;;;10.93;2.63;;;;;;;;;;5136854;27;20015;-36
2023/04/11 05:30:31;;;;;;;10.48;2.15;;;;;;;;;;5136672;27;20071;-35
2023/04/11 05:32:58;;;;;;;9.57;2.65;;;;;;;;;;5136663;27;20464;-36
2023/04/11 05:35:25;;;;;;;7.85;2.15;;;;;;;;;;5136612;27;20544;-36
2023/04/11 05:37:52;;;;;;;9.70;2.70;;;;;;;;;;5136603;27;20042;-35
2023/04/11 05:40:19;;;;;;;9.15;2.40;;;;;;;;;;5136649;27;20028;-36
2023/04/11 05:42:46;;;;;;;7.05;2.30;;;;;;;;;;5136487;27;20030;-36
2023/04/11 05:45:13;;;;;;;11.15;2.55;;;;;;;;;;5136511;27;20023;-35
2023/04/11 05:47:40;;;;;;;8.95;2.53;;;;;;;;;;5136366;27;20020;-35
2023/04/11 05:50:07;;;;;;;9.13;2.20;;;;;;;;;;5136385;27;20035;-36
2023/04/11 05:52:34;;;;;;;9.43;2.33;;;;;;;;;;5136448;27;20053;-35
2023/04/11 05:55:03;;;;;;;14.57;2.58;;;;;;;;;;5136280;27;20034;-36
2023/04/11 05:57:30;;;;;;;7.20;2.10;;;;;;;;;;5136094;27;20484;-35
2023/04/11 06:00:00;;;;;;;9.18;2.35;;;;;;;;;;5136248;27;20035;-36
2023/04/11 06:02:28;;;;;;;8.60;2.08;;;;;;;;;;5134815;27;20400;-36
2023/04/11 06:04:54;;;;;;;10.23;2.30;;;;;;;;;;5136177;27;20019;-36
2023/04/11 06:07:22;;;;;;;8.65;2.30;;;;;;;;;;5136074;27;20068;-37
2023/04/11 06:09:49;;;;;;;9.77;2.25;;;;;;;;;;5135994;27;20847;-35
2023/04/11 06:12:16;;;;;;;9.02;1.70;;;;;;;;;;5136080;27;20042;-35
2023/04/11 06:14:43;;;;;;;10.45;2.25;;;;;;;;;;5136034;27;20556;-36
2023/04/11 06:17:10;;;;;;;11.60;2.20;;;;;;;;;;5135825;27;20019;-35
2023/04/11 06:19:37;;;;;;;10.93;2.20;;;;;;;;;;5135899;27;20025;-36
2023/04/11 06:22:04;;;;;;;6.43;2.00;;;;;;;;;;5135731;27;20047;-36
2023/04/11 06:24:38;;;;;;;7.88;2.30;;;;;;;;;;5135895;27;20015;-36
2023/04/11 06:27:08;;;;;;;10.13;2.10;;;;;;;;;;5135713;27;20046;-35
2023/04/11 06:29:35;;;;;;;6.85;2.13;;;;;;;;;;5135569;27;20078;-37
2023/04/11 06:32:02;;;;;;;8.40;2.00;;;;;;;;;;5135633;27;20027;-36
2023/04/11 06:34:29;;;;;;;7.90;1.85;;;;;;;;;;5135629;27;20058;-36
2023/04/11 06:36:56;;;;;;;6.20;1.92;;;;;;;;;;5135318;27;20030;-36
2023/04/11 06:39:23;;;;;;;8.57;2.40;;;;;;;;;;5134975;27;20119;-36
2023/04/11 06:41:51;;;;;;;7.10;2.05;;;;;;;;;;5135430;27;20076;-36
2023/04/11 06:44:18;;;;;;;4.95;2.10;;;;;;;;;;5134056;27;20062;-36
2023/04/11 06:46:45;;;;;;;9.13;2.30;;;;;;;;;;5135379;27;20034;-36
2023/04/11 06:49:12;;;;;;;8.82;1.80;;;;;;;;;;5135053;27;20027;-36
2023/04/11 06:51:39;;;;;;;7.80;2.05;;;;;;;;;;5135185;27;20027;-36
2023/04/11 06:54:06;;;;;;;7.97;2.00;;;;;;;;;;5135238;27;20050;-36
2023/04/11 06:56:33;;;;;;;6.22;1.80;;;;;;;;;;5133664;27;20442;-36
2023/04/11 06:59:00;;;;;;;7.05;1.85;;;;;;;;;;5135007;27;20397;-36
2023/04/11 07:01:34;;;;;;;9.32;1.90;;;;;;;;;;5135017;27;20450;-36
2023/04/11 07:04:01;;;;;;;6.72;1.73;;;;;;;;;;5135292;27;20031;-36
2023/04/11 07:06:28;;;;;;;7.50;1.98;;;;;;;;;;5134944;27;20039;-36
2023/04/11 07:08:55;;;;;;;6.30;2.05;;;;;;;;;;5134781;27;20057;-36
2023/04/11 07:11:22;;;;;;;10.02;2.10;;;;;;;;;;5134800;27;20028;-35
2023/04/11 07:13:50;;;;;;;5.85;1.98;;;;;;;;;;5134842;27;20542;-36
2023/04/11 07:16:17;;;;;;;6.38;1.83;;;;;;;;;;5134837;27;20074;-36
2023/04/11 07:18:44;;;;;;;6.60;1.52;;;;;;;;;;5134537;27;20033;-35
2023/04/11 07:21:14;;;;;;;8.40;2.33;;;;;;;;;;5134428;27;20099;-36
2023/04/11 07:23:42;;;;;;;6.63;1.77;;;;;;;;;;5134693;27;20110;-36
2023/04/11 07:26:10;;;;;;;8.48;1.65;;;;;;;;;;5134486;27;20038;-35
2023/04/11 07:28:40;;;;;;;4.25;1.50;;;;;;;;;;5134560;27;20545;-36
2023/04/11 07:31:13;;;;;;;4.95;1.60;;;;;;;;;;5134467;27;20039;-36
2023/04/11 07:33:44;;;;;;;4.97;1.70;;;;;;;;;;5134392;27;20084;-36
2023/04/11 07:36:11;;;;;;;6.25;1.52;;;;;;;;;;5134418;27;20022;-36
2023/04/11 07:38:38;;;;;;;5.47;1.70;;;;;;;;;;5134323;27;20027;-37
2023/04/11 07:41:05;;;;;;;4.93;1.75;;;;;;;;;;5134367;27;20027;-36
2023/04/11 07:43:32;;;;;;;4.55;1.38;;;;;;;;;;5134227;27;20019;-37
2023/04/11 07:45:59;;;;;;;7.47;1.90;;;;;;;;;;5134261;27;20044;-36
2023/04/11 07:48:27;;;;;;;4.97;1.80;;;;;;;;;;5134050;27;20511;-36
2023/04/11 07:50:54;;;;;;;5.10;1.40;;;;;;;;;;5133200;27;20031;-37
2023/04/11 07:53:22;;;;;;;5.22;1.45;;;;;;;;;;5134159;27;20028;-36
2023/04/11 07:55:49;;;;;;;5.82;1.40;;;;;;;;;;5134007;27;20095;-36
2023/04/11 07:58:16;;;;;;;6.40;1.50;;;;;;;;;;5133851;27;20032;-37
2023/04/11 08:00:46;;;;;;;6.50;1.55;;;;;;;;;;5132655;27;20219;-36
2023/04/11 08:03:13;;;;;;;5.00;1.60;;;;;;;;;;5133904;27;20034;-37
2023/04/11 08:05:40;;;;;;;5.18;1.48;;;;;;;;;;5133848;27;20027;-37
2023/04/11 08:08:07;;;;;;;2.65;1.23;;;;;;;;;;5133572;27;20098;-36
2023/04/11 08:10:34;;;;;;;5.20;1.52;;;;;;;;;;5133671;27;20543;-37
2023/04/11 08:13:01;;;;;;;3.42;1.30;;;;;;;;;;5133759;27;20508;-37
2023/04/11 08:15:28;;;;;;;5.00;1.50;;;;;;;;;;5133657;27;20035;-37
2023/04/11 08:17:56;;;;;;;4.45;1.40;;;;;;;;;;5133460;27;20114;-36
2023/04/11 08:20:26;;;;;;;3.25;1.10;;;;;;;;;;5133629;27;20035;-36
2023/04/11 08:22:53;;;;;;;4.15;1.60;;;;;;;;;;5133457;27;20031;-36
2023/04/11 08:25:24;;;;;;;3.75;1.20;;;;;;;;;;5120323;27;20067;-37
2023/04/11 08:27:52;;;;;;;11.02;1.65;;;;;;;;;;5133381;27;20419;-37
2023/04/11 08:30:20;;;;;;;5.32;1.20;;;;;;;;;;5133237;27;20473;-36
2023/04/11 08:32:47;;;;;;;4.60;1.25;;;;;;;;;;5133360;27;20385;-36
2023/04/11 08:35:14;;;;;;;5.35;1.52;;;;;;;;;;5133274;27;20553;-37
2023/04/11 08:37:43;;;;;;;4.35;1.30;;;;;;;;;;5133222;27;20023;-37
2023/04/11 08:40:10;;;;;;;4.70;1.60;;;;;;;;;;5133067;27;20080;-37
2023/04/11 08:42:37;;;;;;;4.05;1.40;;;;;;;;;;5132959;27;20038;-36
2023/04/11 08:45:07;;;;;;;3.83;1.10;;;;;;;;;;5133123;27;20054;-36
2023/04/11 08:47:35;;;;;;;4.93;1.30;;;;;;;;;;5132908;27;20041;-37
2023/04/11 08:50:02;;;;;;;3.30;1.50;;;;;;;;;;5132845;27;20122;-37
2023/04/11 08:52:30;;;;;;;2.83;1.17;;;;;;;;;;5132960;27;20054;-36
2023/04/11 08:54:57;;;;;;;4.60;1.38;;;;;;;;;;5132948;27;20023;-37
2023/04/11 08:57:30;;;;;;;4.82;1.50;;;;;;;;;;5132791;27;20050;-37
2023/04/11 09:00:09;;;;;;;3.75;1.42;;;;;;;;;;5132702;27;20471;-37
2023/04/11 09:02:54;;;;;;;4.32;1.40;;;;;;;;;;5132676;27;20385;-36
2023/04/11 09:05:31;;;;;;;4.18;1.30;;;;;;;;;;5132862;27;20023;-36
2023/04/11 09:07:59;;;;;;;5.25;1.20;;;;;;;;;;5132815;27;20062;-36
2023/04/11 09:10:26;;;;;;;5.47;1.40;;;;;;;;;;5132576;27;20035;-36
2023/04/11 09:12:56;;;;;;;5.45;1.58;;;;;;;;;;5128650;27;20388;-37
2023/04/11 09:15:25;;;;;;;4.97;1.42;;;;;;;;;;5123359;28;20027;-36
2023/04/11 09:17:52;;;;;;;4.13;1.23;;;;;;;;;;5132588;27;20027;-36
2023/04/11 09:20:20;;;;;;;6.57;1.30;;;;;;;;;;5132360;28;20031;-36
2023/04/11 09:22:51;;;;;;;2.20;1.10;;;;;;;;;;5132408;27;20051;-37
2023/04/11 09:25:18;;;;;;;4.32;1.20;;;;;;;;;;5131546;28;20276;-36
2023/04/11 09:27:45;;;;;;;5.97;1.10;;;;;;;;;;5130037;28;20396;-36
2023/04/11 09:30:32;;;;;;;3.28;1.17;;;;;;;;;;5131913;28;20035;-36
2023/04/11 09:32:59;;;;;;;3.42;1.15;;;;;;;;;;5131287;28;20110;-36
2023/04/11 09:35:27;;;;;;;4.25;1.30;;;;;;;;;;5131509;28;20134;-37
2023/04/11 09:37:55;;;;;;;3.00;1.40;;;;;;;;;;5131706;28;20046;-36
2023/04/11 09:40:22;;;;;;;3.10;1.13;;;;;;;;;;5133682;27;20507;-36
2023/04/11 09:42:56;;;;;;;5.32;1.30;;;;;;;;;;5153130;27;20487;-36
2023/04/11 09:45:24;;;;;;;5.05;1.45;;;;;;;;;;5152967;27;20496;-36
2023/04/11 09:47:52;;;;;;;2.72;1.08;;;;;;;;;;5152934;27;20041;-37
2023/04/11 09:50:19;;;;;;;2.88;1.00;;;;;;;;;;5152904;27;20114;-36
2023/04/11 09:52:47;;;;;;;8.48;1.40;;;;;;;;;;5152831;27;20031;-36
2023/04/11 09:55:16;;;;;;;3.22;1.10;;;;;;;;;;5153033;27;20043;-36
2023/04/11 09:57:46;;;;;;;4.13;0.98;;;;;;;;;;5152357;27;20047;-36
2023/04/11 10:00:17;;;;;;;7.90;1.30;;;;;;;;;;5153004;27;20098;-36
2023/04/11 10:02:45;;;;;;;3.05;1.17;;;;;;;;;;5152915;27;20026;-37
2023/04/11 10:05:14;;;;;;;3.42;1.20;;;;;;;;;;5153020;27;20070;-36
2023/04/11 10:07:51;;;;;;;5.90;1.42;;;;;;;;;;5153058;27;20035;-36
2023/04/11 10:10:22;;;;;;;4.88;1.50;;;;;;;;;;5148430;27;20027;-37
2023/04/11 10:12:50;;;;;;;3.90;1.33;;;;;;;;;;5149787;27;20045;-36
2023/04/11 10:15:18;;;;;;;6.60;1.63;;;;;;;;;;5152233;27;20472;-37
2023/04/11 10:18:04;;;;;;;7.07;1.48;;;;;;;;;;5143309;27;20077;-36
2023/04/11 10:20:49;;;;;;;4.38;1.42;;;;;;;;;;5146813;27;20051;-36
2023/04/11 10:23:16;;;;;;;6.53;1.42;;;;;;;;;;5144648;27;20061;-36
2023/04/11 10:25:51;;;;;;;9.10;1.60;;;;;;;;;;5147493;27;20046;-36
2023/04/11 10:28:37;;;;;;;6.68;1.70;;;;;;;;;;5151189;27;20033;-36
2023/04/11 10:31:04;;;;;;;9.20;1.70;;;;;;;;;;5146192;27;20066;-36
2023/04/11 10:33:31;;;;;;;5.63;1.58;;;;;;;;;;5144441;27;20477;-36
2023/04/11 10:36:04;;;;;;;4.60;1.40;;;;;;;;;;5144139;27;20530;-36
2023/04/11 10:38:43;;;;;;;5.28;1.38;;;;;;;;;;5143783;27;20678;-37
2023/04/11 10:41:27;;;;;;;4.10;1.75;;;;;;;;;;5143429;27;20077;-36
2023/04/11 10:44:17;;;;;;;7.07;1.88;;;;;;;;;;5135366;27;20027;-37
2023/04/11 10:46:45;;;;;;;6.25;1.63;;;;;;;;;;5135549;27;20039;-37
2023/04/11 10:49:12;;;;;;;7.63;1.73;;;;;;;;;;5135345;27;20034;-37
2023/04/11 10:51:39;;;;;;;15.15;1.80;;;;;;;;;;5135316;27;20500;-37
2023/04/11 10:54:26;;;;;;;6.15;1.92;;;;;;;;;;5135336;27;20533;-37
2023/04/11 10:56:54;;;;;;;5.75;1.60;;;;;;;;;;5135131;27;20019;-37
2023/04/11 10:59:36;;;;;;;5.78;1.67;;;;;;;;;;5135092;27;20044;-36
2023/04/11 11:02:03;;;;;;;10.10;1.77;;;;;;;;;;5135137;27;20030;-36
2023/04/11 11:04:33;;;;;;;8.82;1.98;;;;;;;;;;5134557;27;20035;-36
2023/04/11 11:07:01;;;;;;;5.45;1.60;;;;;;;;;;5134381;27;20023;-36
2023/04/11 11:09:28;;;;;;;20.23;3.00;;;;;;;;;;5134460;27;20031;-36
2023/04/11 11:12:25;;;;;;;23.33;2.58;;;;;;;;;;5134441;27;20051;-36
2023/04/11 11:14:53;;;;;;;1999.90;279.55;;;;;;;;;;5118392;27;20058;-36
2023/04/11 11:17:22;;;;;;;536.50;38.67;;;;;;;;;;5134377;27;20069;-36
2023/04/11 11:19:49;;;;;;;279.60;23.52;;;;;;;;;;5134299;27;20365;-37
2023/04/11 11:22:25;;;;;;;124.55;12.70;;;;;;;;;;5134351;27;20058;-36
2023/04/11 11:24:52;;;;;;;79.18;9.57;;;;;;;;;;5134210;27;20031;-36
2023/04/11 11:27:21;;;;;;;66.72;7.00;;;;;;;;;;5134216;27;20503;-36
2023/04/11 11:29:48;;;;;;;56.70;6.00;;;;;;;;;;5134374;27;20138;-36
2023/04/11 11:32:28;;;;;;;44.40;4.85;;;;;;;;;;5134284;27;20043;-36
2023/04/11 11:34:56;;;;;;;124.38;8.15;;;;;;;;;;5134129;27;20537;-39
2023/04/11 11:37:23;;;;;;;91.18;6.45;;;;;;;;;;5134043;27;20035;-36
2023/04/11 11:39:50;;;;;;;53.08;5.60;;;;;;;;;;5134184;27;20031;-37
2023/04/11 11:42:17;;;;;;;42.95;4.90;;;;;;;;;;5134086;27;20026;-37
2023/04/11 11:44:44;;;;;;;40.15;6.35;;;;;;;;;;5133997;27;20043;-36
2023/04/11 11:47:13;;;;;;;89.00;7.05;;;;;;;;;;5133836;27;20031;-37
2023/04/11 11:49:51;;;;;;;50.03;5.90;;;;;;;;;;5133809;27;20023;-37
2023/04/11 11:52:40;;;;;;;45.88;5.57;;;;;;;;;;5133884;27;20375;-37
2023/04/11 11:55:09;;;;;;;80.68;9.95;;;;;;;;;;5133869;27;20031;-36
2023/04/11 11:57:36;;;;;;;45.45;6.35;;;;;;;;;;5133053;27;20051;-37
2023/04/11 12:00:04;;;;;;;36.97;5.72;;;;;;;;;;5133675;27;20092;-38
2023/04/11 12:02:34;;;;;;;35.95;4.63;;;;;;;;;;5133594;27;20031;-37
2023/04/11 12:05:03;;;;;;;25.00;4.00;;;;;;;;;;5133566;27;20076;-37
2023/04/11 12:07:34;;;;;;;23.05;3.88;;;;;;;;;;5133483;27;20041;-37
2023/04/11 12:10:05;;;;;;;19.63;4.27;;;;;;;;;;5133403;27;20043;-37
2023/04/11 12:12:42;;;;;;;23.52;3.33;;;;;;;;;;5133397;27;20432;-37
2023/04/11 12:15:13;;;;;;;22.73;3.85;;;;;;;;;;5133442;27;20448;-37
2023/04/11 12:17:40;;;;;;;29.13;3.60;;;;;;;;;;5132023;27;20039;-37
2023/04/11 12:20:09;;;;;;;14.98;2.95;;;;;;;;;;5133198;27;20019;-36
2023/04/11 12:22:36;;;;;;;28.08;3.30;;;;;;;;;;5133046;27;20071;-36
2023/04/11 12:25:04;;;;;;;21.65;3.28;;;;;;;;;;5131846;27;20058;-37
2023/04/11 12:27:35;;;;;;;23.13;3.30;;;;;;;;;;5133248;27;20023;-37
2023/04/11 12:30:03;;;;;;;22.50;3.40;;;;;;;;;;5133016;27;20035;-37
2023/04/11 12:32:32;;;;;;;20.00;3.35;;;;;;;;;;5133064;27;20045;-37
2023/04/11 12:34:59;;;;;;;14.57;3.22;;;;;;;;;;5132738;27;20084;-37
2023/04/11 12:37:26;;;;;;;14.40;2.65;;;;;;;;;;5132647;27;20024;-36
2023/04/11 12:39:53;;;;;;;29.90;3.28;;;;;;;;;;5133107;27;20469;-37
2023/04/11 12:42:21;;;;;;;26.23;3.22;;;;;;;;;;5132959;27;20118;-37
2023/04/11 12:44:49;;;;;;;24.40;3.45;;;;;;;;;;5132918;27;20031;-37
2023/04/11 12:47:16;;;;;;;20.55;3.20;;;;;;;;;;5132557;27;20382;-37
2023/04/11 12:49:43;;;;;;;22.20;3.53;;;;;;;;;;5132682;27;20035;-37
2023/04/11 12:52:10;;;;;;;17.42;3.15;;;;;;;;;;5132741;27;20038;-37
2023/04/11 12:54:37;;;;;;;18.42;3.30;;;;;;;;;;5132806;27;20020;-37
2023/04/11 12:57:04;;;;;;;36.35;4.82;;;;;;;;;;5132661;27;20019;-38
2023/04/11 12:59:31;;;;;;;30.33;4.18;;;;;;;;;;5132739;27;20489;-37
2023/04/11 13:01:58;;;;;;;26.35;3.63;;;;;;;;;;5132694;27;20015;-38
2023/04/11 13:04:25;;;;;;;16.75;3.65;;;;;;;;;;5132525;27;20027;-37
2023/04/11 13:06:52;;;;;;;19.10;3.90;;;;;;;;;;5132461;27;20027;-38
2023/04/11 13:09:19;;;;;;;20.38;3.42;;;;;;;;;;5131284;27;20023;-37
2023/04/11 13:11:46;;;;;;;21.92;3.78;;;;;;;;;;5132559;27;20066;-38
2023/04/11 13:14:13;;;;;;;23.08;3.70;;;;;;;;;;5132603;27;20079;-37
2023/04/11 13:16:42;;;;;;;36.63;4.53;;;;;;;;;;5132605;27;20477;-37
2023/04/11 13:19:09;;;;;;;27.00;4.35;;;;;;;;;;5132468;27;20400;-37
2023/04/11 13:21:36;;;;;;;28.40;4.53;;;;;;;;;;5132027;27;20045;-36
2023/04/11 13:24:03;;;;;;;39.17;4.28;;;;;;;;;;5146349;27;20058;-37
2023/04/11 13:26:30;;;;;;;20.00;4.10;;;;;;;;;;5132103;27;20111;-36
2023/04/11 13:28:57;;;;;;;25.52;3.80;;;;;;;;;;5132446;27;20031;-37
2023/04/11 13:31:25;;;;;;;24.13;4.03;;;;;;;;;;5132314;27;20118;-36
2023/04/11 13:33:58;;;;;;;23.45;4.15;;;;;;;;;;5132277;27;20071;-36
2023/04/11 13:36:26;;;;;;;20.95;3.70;;;;;;;;;;5131951;27;20027;-35
2023/04/11 13:38:56;;;;;;;51.90;6.15;;;;;;;;;;5132215;27;20507;-36
2023/04/11 13:41:24;;;;;;;25.02;3.97;;;;;;;;;;5132188;27;20021;-35
2023/04/11 13:43:54;;;;;;;26.90;4.18;;;;;;;;;;5131935;27;20027;-37
2023/04/11 13:46:21;;;;;;;16.10;3.75;;;;;;;;;;5132329;27;20023;-37
2023/04/11 13:48:49;;;;;;;21.25;3.53;;;;;;;;;;5135931;27;20050;-36
2023/04/11 13:51:16;;;;;;;36.17;5.00;;;;;;;;;;5136032;27;20035;-36
2023/04/11 13:53:43;;;;;;;19.70;4.07;;;;;;;;;;5136079;27;20023;-36
2023/04/11 13:56:10;;;;;;;47.30;6.28;;;;;;;;;;5136031;27;20034;-36
2023/04/11 13:58:37;;;;;;;37.85;4.55;;;;;;;;;;5135754;27;20079;-35
2023/04/11 14:01:05;;;;;;;28.02;4.68;;;;;;;;;;5135777;27;20092;-38
2023/04/11 14:03:32;;;;;;;30.08;5.55;;;;;;;;;;5135766;27;20026;-36
2023/04/11 14:06:00;;;;;;;32.53;5.72;;;;;;;;;;5135819;27;20067;-36
2023/04/11 14:08:29;;;;;;;22.95;5.05;;;;;;;;;;5134138;27;20031;-36
2023/04/11 14:10:56;;;;;;;34.03;5.35;;;;;;;;;;5135682;27;20481;-36
2023/04/11 14:13:23;;;;;;;79.65;8.07;;;;;;;;;;5135567;27;20054;-36
2023/04/11 14:15:50;;;;;;;44.70;4.90;;;;;;;;;;5143943;27;20107;-37
2023/04/11 14:18:17;;;;;;;30.00;5.18;;;;;;;;;;5140771;27;20053;-36
2023/04/11 14:20:44;;;;;;;25.58;5.00;;;;;;;;;;5135215;27;20045;-36
2023/04/11 14:23:13;;;;;;;26.48;5.53;;;;;;;;;;5135401;27;20031;-37
2023/04/11 14:25:41;;;;;;;38.70;4.78;;;;;;;;;;5135381;27;20042;-36
2023/04/11 14:28:08;;;;;;;26.80;4.43;;;;;;;;;;5135172;27;20029;-37
2023/04/11 14:30:35;;;;;;;36.88;4.85;;;;;;;;;;5135430;27;20031;-35
2023/04/11 14:33:02;;;;;;;42.25;5.57;;;;;;;;;;5135113;27;20019;-36
2023/04/11 14:35:30;;;;;;;35.95;5.18;;;;;;;;;;5135257;27;20063;-36
2023/04/11 14:37:57;;;;;;;19.98;4.05;;;;;;;;;;5135014;27;20374;-37
2023/04/11 14:40:24;;;;;;;21.05;4.55;;;;;;;;;;5134365;27;20035;-37